createdAt,value
2019-04-04T00:00:54.030Z,34.17
2019-04-04T00:03:22.742Z,35.27
2019-04-04T00:05:50.670Z,39.00
2019-04-04T00:08:18.259Z,39.77
2019-04-04T00:13:51.570Z,29.90
2019-04-04T00:16:19.151Z,29.07
2019-04-04T00:18:48.076Z,26.83
2019-04-04T00:21:15.945Z,24.43
2019-04-04T00:23:43.941Z,25.13
2019-04-04T00:26:11.740Z,25.37
2019-04-04T00:28:39.542Z,28.07
2019-04-04T00:31:07.384Z,27.57
2019-04-04T00:33:53.847Z,27.20
2019-04-04T00:39:46.071Z,26.10
2019-04-04T00:42:18.250Z,27.77
2019-04-04T00:44:46.103Z,28.47
2019-04-04T00:47:13.722Z,30.47
2019-04-04T00:50:06.654Z,27.60
2019-04-04T00:52:36.370Z,25.00
2019-04-04T00:55:04.093Z,24.07
2019-04-04T00:57:31.853Z,22.93
2019-04-04T01:00:01.356Z,23.47
2019-04-04T01:02:29.192Z,23.17
2019-04-04T01:04:57.022Z,24.00
2019-04-04T01:07:25.617Z,22.97
2019-04-04T01:09:53.221Z,24.03
2019-04-04T01:12:21.639Z,22.90
2019-04-04T01:14:49.918Z,20.50
2019-04-04T01:17:17.452Z,21.30
2019-04-04T01:19:45.034Z,21.23
2019-04-04T01:22:41.549Z,19.20
2019-04-04T01:25:10.306Z,20.17
2019-04-04T01:27:37.865Z,20.13
2019-04-04T01:30:06.155Z,17.70
2019-04-04T01:32:38.277Z,17.50
2019-04-04T01:35:06.681Z,19.67
2019-04-04T01:37:34.246Z,18.23
2019-04-04T01:40:02.727Z,18.33
2019-04-04T01:42:30.672Z,18.20
2019-04-04T01:44:58.547Z,16.50
2019-04-04T01:47:26.383Z,16.57
2019-04-04T01:49:53.976Z,16.47
2019-04-04T01:52:21.514Z,15.30
2019-04-04T01:54:49.008Z,13.80
2019-04-04T01:57:16.557Z,14.63
2019-04-04T01:59:44.482Z,13.47
2019-04-04T02:02:12.241Z,13.73
2019-04-04T02:04:41.882Z,13.47
2019-04-04T02:07:09.735Z,14.43
2019-04-04T02:09:37.327Z,14.03
2019-04-04T02:12:07.613Z,14.27
2019-04-04T02:14:34.553Z,16.23
2019-04-04T02:17:02.302Z,14.90
2019-04-04T02:19:30.133Z,14.40
2019-04-04T02:21:59.845Z,14.67
2019-04-04T02:24:27.375Z,16.47
2019-04-04T02:26:55.277Z,16.50
2019-04-04T02:29:22.762Z,16.43
2019-04-04T02:31:54.753Z,17.00
2019-04-04T02:34:22.319Z,16.67
2019-04-04T02:36:50.004Z,17.43
2019-04-04T02:39:18.992Z,16.70
2019-04-04T02:41:48.456Z,19.00
2019-04-04T02:44:16.019Z,18.83
2019-04-04T02:46:45.534Z,19.20
2019-04-04T02:49:13.212Z,20.70
2019-04-04T02:51:41.504Z,22.97
2019-04-04T02:54:09.259Z,24.47
2019-04-04T02:56:37.150Z,25.37
2019-04-04T02:59:05.066Z,26.53
2019-04-04T03:01:33.329Z,45.35
2019-04-04T03:04:01.031Z,36.37
2019-04-04T03:06:28.694Z,33.10
2019-04-04T03:08:56.372Z,35.30
2019-04-04T03:11:24.296Z,36.00
2019-04-04T03:13:51.970Z,35.13
2019-04-04T03:16:21.619Z,34.37
2019-04-04T03:18:49.356Z,32.67
2019-04-04T03:21:22.223Z,33.47
2019-04-04T03:23:47.657Z,31.07
2019-04-04T03:26:19.062Z,31.80
2019-04-04T03:28:45.422Z,31.47
2019-04-04T03:31:13.063Z,31.37
2019-04-04T03:33:40.832Z,32.63
2019-04-04T03:36:08.424Z,32.60
2019-04-04T03:38:36.089Z,34.53
2019-04-04T03:41:04.127Z,33.40
2019-04-04T03:43:31.667Z,31.90
2019-04-04T03:46:01.412Z,31.30
2019-04-04T03:48:29.042Z,30.87
2019-04-04T03:50:57.478Z,31.23
2019-04-04T03:53:25.508Z,32.03
2019-04-04T03:55:53.081Z,32.90
2019-04-04T03:58:20.700Z,33.57
2019-04-04T04:00:48.582Z,33.13
2019-04-04T04:03:16.163Z,32.53
2019-04-04T04:05:44.031Z,32.50
2019-04-04T04:08:11.607Z,32.23
2019-04-04T04:10:39.239Z,34.03
2019-04-04T04:13:07.561Z,35.37
2019-04-04T04:15:36.168Z,32.37
2019-04-04T04:18:04.029Z,35.97
2019-04-04T04:20:36.329Z,38.60
2019-04-04T04:23:02.013Z,37.53
2019-04-04T04:25:29.641Z,40.30
2019-04-04T04:27:57.222Z,37.33
2019-04-04T04:30:24.853Z,38.50
2019-04-04T04:32:55.837Z,39.30
2019-04-04T04:35:22.129Z,38.40
2019-04-04T04:37:52.274Z,39.70
2019-04-04T04:40:19.160Z,40.27
2019-04-04T04:42:46.754Z,39.13
2019-04-04T04:45:14.346Z,37.03
2019-04-04T04:47:41.937Z,55.40
2019-04-04T04:50:10.165Z,43.20
2019-04-04T04:52:37.675Z,38.73
2019-04-04T04:55:05.615Z,43.50
2019-04-04T04:57:34.419Z,37.67
2019-04-04T05:00:03.047Z,37.97
2019-04-04T05:02:31.627Z,36.13
2019-04-04T05:04:59.970Z,36.77
2019-04-04T05:07:27.504Z,36.53
2019-04-04T05:09:55.359Z,37.60
2019-04-04T05:12:23.964Z,35.43
2019-04-04T05:14:51.543Z,39.67
2019-04-04T05:17:19.366Z,41.23
2019-04-04T05:19:48.144Z,39.53
2019-04-04T05:22:17.078Z,69.03
2019-04-04T05:24:44.688Z,48.30
2019-04-04T05:27:12.245Z,45.93
2019-04-04T05:29:39.844Z,43.60
2019-04-04T05:32:07.469Z,43.57
2019-04-04T05:34:35.074Z,44.67
2019-04-04T05:37:02.685Z,46.30
2019-04-04T05:39:30.237Z,47.13
2019-04-04T05:41:59.910Z,48.10
2019-04-04T05:44:27.236Z,48.17
2019-04-04T05:46:55.833Z,48.30
2019-04-04T05:49:23.443Z,48.67
2019-04-04T05:51:51.170Z,49.30
2019-04-04T05:54:18.724Z,50.10
2019-04-04T05:56:48.603Z,50.17
2019-04-04T05:59:15.735Z,52.80
2019-04-04T06:01:43.614Z,51.57
2019-04-04T06:04:11.475Z,53.27
2019-04-04T06:06:39.126Z,53.80
2019-04-04T06:09:06.969Z,54.17
2019-04-04T06:11:34.512Z,55.67
2019-04-04T06:14:02.447Z,56.70
2019-04-04T06:16:33.014Z,54.37
2019-04-04T06:19:00.909Z,57.80
2019-04-04T06:21:28.468Z,57.00
2019-04-04T06:23:56.675Z,60.33
2019-04-04T06:26:24.629Z,60.80
2019-04-04T06:28:52.219Z,63.90
2019-04-04T06:31:19.790Z,67.53
2019-04-04T06:33:47.408Z,64.43
2019-04-04T06:36:17.625Z,68.53
2019-04-04T06:38:44.273Z,68.17
2019-04-04T06:41:12.883Z,68.30
2019-04-04T06:43:41.702Z,68.27
2019-04-04T06:46:09.608Z,71.73
2019-04-04T06:48:37.252Z,72.97
2019-04-04T06:51:04.785Z,76.27
2019-04-04T06:53:32.664Z,75.73
2019-04-04T06:56:00.263Z,77.27
2019-04-04T06:58:28.852Z,80.93
2019-04-04T07:00:56.430Z,80.37
2019-04-04T07:03:27.073Z,81.17
2019-04-04T07:05:53.395Z,83.43
2019-04-04T07:08:20.956Z,79.60
2019-04-04T07:10:57.857Z,78.43
2019-04-04T07:13:21.907Z,77.87
2019-04-04T07:16:03.498Z,78.37
2019-04-04T07:18:16.811Z,75.33
2019-04-04T07:20:48.024Z,79.23
2019-04-04T07:23:14.436Z,80.53
2019-04-04T07:25:42.134Z,85.90
2019-04-04T07:28:09.686Z,77.13
2019-04-04T07:30:37.528Z,80.30
2019-04-04T07:33:05.428Z,79.03
2019-04-04T07:35:33.362Z,74.30
2019-04-04T07:38:00.852Z,68.97
2019-04-04T07:40:28.406Z,63.17
2019-04-04T07:42:55.938Z,53.83
2019-04-04T07:45:25.992Z,53.13
2019-04-04T07:47:53.524Z,48.93
2019-04-04T07:50:21.326Z,45.93
2019-04-04T07:52:49.197Z,40.73
2019-04-04T07:55:16.729Z,37.03
2019-04-04T07:57:44.307Z,31.47
2019-04-04T08:00:11.949Z,26.73
2019-04-04T08:02:39.829Z,26.37
2019-04-04T08:05:07.413Z,24.50
2019-04-04T08:07:35.119Z,19.73
2019-04-04T08:10:03.005Z,20.57
2019-04-04T08:12:30.536Z,19.30
2019-04-04T08:14:58.133Z,18.17
2019-04-04T08:17:25.684Z,13.07
2019-04-04T08:19:59.713Z,13.57
2019-04-04T08:22:23.458Z,12.40
2019-04-04T08:24:51.059Z,10.67
2019-04-04T08:27:18.575Z,11.63
2019-04-04T08:29:46.246Z,10.00
2019-04-04T08:32:13.858Z,9.93
2019-04-04T08:34:41.366Z,9.13
2019-04-04T08:37:08.950Z,9.27
2019-04-04T08:39:36.518Z,8.43
2019-04-04T08:42:04.216Z,9.50
2019-04-04T08:44:31.801Z,9.10
2019-04-04T08:46:59.399Z,10.13
2019-04-04T08:49:26.976Z,8.27
2019-04-04T08:51:54.505Z,9.30
2019-04-04T08:54:22.377Z,8.17
2019-04-04T08:56:49.995Z,7.60
2019-04-04T08:59:18.768Z,7.37
2019-04-04T09:01:46.395Z,7.80
2019-04-04T09:04:13.971Z,7.40
2019-04-04T09:06:41.647Z,6.70
2019-04-04T09:09:09.241Z,6.37
2019-04-04T09:11:36.859Z,6.50
2019-04-04T09:14:04.475Z,6.57
2019-04-04T09:16:32.077Z,6.77
2019-04-04T09:18:59.952Z,6.23
2019-04-04T09:21:27.563Z,6.50
2019-04-04T09:23:56.462Z,5.70
2019-04-04T09:26:24.113Z,5.50
2019-04-04T09:28:51.707Z,5.10
2019-04-04T09:31:19.357Z,5.17
2019-04-04T09:33:47.036Z,4.83
2019-04-04T09:36:14.624Z,5.07
2019-04-04T09:38:42.253Z,4.97
2019-04-04T09:41:10.155Z,3.83
2019-04-04T09:43:37.976Z,4.23
2019-04-04T09:46:06.163Z,4.30
2019-04-04T09:48:33.829Z,4.60
2019-04-04T09:51:01.956Z,3.93
2019-04-04T09:53:29.599Z,4.53
2019-04-04T09:55:57.205Z,4.90
2019-04-04T09:58:24.844Z,4.20
2019-04-04T10:00:52.438Z,4.60
2019-04-04T10:03:20.098Z,4.63
2019-04-04T10:05:47.727Z,3.95
2019-04-04T10:08:15.671Z,3.33
2019-04-04T10:10:43.492Z,3.70
2019-04-04T10:13:11.026Z,3.10
2019-04-04T10:15:38.951Z,3.43
2019-04-04T10:18:06.567Z,2.85
2019-04-04T10:20:34.389Z,3.02
2019-04-04T10:23:02.378Z,2.87
2019-04-04T10:25:30.247Z,3.20
2019-04-04T10:27:58.142Z,2.53
2019-04-04T10:30:25.691Z,2.90
2019-04-04T10:32:53.336Z,2.87
2019-04-04T10:35:20.930Z,3.22
2019-04-04T10:37:48.479Z,2.20
2019-04-04T10:40:16.753Z,2.90
2019-04-04T10:42:44.622Z,3.22
2019-04-04T10:45:12.218Z,2.70
2019-04-04T10:47:39.747Z,2.92
2019-04-04T10:50:07.458Z,3.10
2019-04-04T10:52:35.090Z,2.57
2019-04-04T10:55:02.985Z,2.17
2019-04-04T10:57:30.929Z,2.10
2019-04-04T10:59:58.508Z,1.80
2019-04-04T11:02:26.420Z,2.45
2019-04-04T11:04:54.023Z,2.62
2019-04-04T11:07:21.590Z,1.95
2019-04-04T11:09:49.211Z,2.07
2019-04-04T11:12:16.873Z,2.13
2019-04-04T11:14:49.623Z,1.50
2019-04-04T11:17:17.256Z,1.90
2019-04-04T11:19:44.910Z,1.60
2019-04-04T11:22:15.751Z,1.80
2019-04-04T11:24:44.468Z,1.73
2019-04-04T11:27:12.557Z,1.72
2019-04-04T11:29:40.255Z,1.30
2019-04-04T11:32:07.955Z,1.70
2019-04-04T11:34:35.880Z,1.23
2019-04-04T11:37:03.870Z,1.02
2019-04-04T11:39:31.531Z,1.00
2019-04-04T11:41:59.212Z,1.00
2019-04-04T11:44:27.189Z,1.17
2019-04-04T11:46:54.852Z,1.32
2019-04-04T11:49:23.108Z,1.67
2019-04-04T11:51:50.917Z,1.27
2019-04-04T11:54:18.589Z,1.20
2019-04-04T11:56:46.297Z,1.17
2019-04-04T11:59:13.990Z,1.30
2019-04-04T12:01:42.522Z,1.60
2019-04-04T12:04:10.477Z,1.42
2019-04-04T12:06:38.260Z,1.25
2019-04-04T12:09:06.962Z,1.57
2019-04-04T12:11:34.659Z,1.63
2019-04-04T12:14:02.869Z,1.50
2019-04-04T12:16:32.842Z,1.62
2019-04-04T12:19:00.781Z,1.50
2019-04-04T12:21:29.247Z,1.50
2019-04-04T12:23:56.854Z,1.40
2019-04-04T12:26:24.555Z,0.93
2019-04-04T12:28:52.712Z,0.80
2019-04-04T12:31:20.327Z,1.00
2019-04-04T12:33:47.984Z,1.17
2019-04-04T12:36:24.448Z,0.80
2019-04-04T12:38:45.283Z,1.77
2019-04-04T12:41:12.907Z,1.10
2019-04-04T12:43:40.429Z,1.03
2019-04-04T12:46:08.333Z,1.30
2019-04-04T12:48:36.170Z,1.13
2019-04-04T12:51:03.830Z,1.30
2019-04-04T12:53:32.703Z,1.73
2019-04-04T12:56:00.583Z,0.80
2019-04-04T12:58:28.424Z,0.60
2019-04-04T13:00:56.366Z,0.90
2019-04-04T13:03:23.945Z,1.15
2019-04-04T13:05:54.394Z,0.90
2019-04-04T13:08:21.977Z,0.95
2019-04-04T13:10:49.868Z,0.80
2019-04-04T13:13:17.454Z,1.05
2019-04-04T13:15:45.387Z,1.00
2019-04-04T13:18:14.399Z,1.20
2019-04-04T13:20:42.269Z,1.13
2019-04-04T13:23:09.850Z,1.22
2019-04-04T13:25:37.779Z,1.00
2019-04-04T13:28:05.408Z,0.60
2019-04-04T13:30:32.987Z,0.68
2019-04-04T13:33:00.605Z,1.20
2019-04-04T13:35:28.811Z,0.80
2019-04-04T13:37:56.702Z,0.98
2019-04-04T13:40:24.283Z,0.80
2019-04-04T13:42:52.938Z,1.00
2019-04-04T13:45:21.008Z,1.10
2019-04-04T13:47:48.575Z,1.12
2019-04-04T13:50:19.731Z,1.22
2019-04-04T13:52:46.148Z,0.80
2019-04-04T13:55:13.791Z,1.10
2019-04-04T13:57:41.339Z,1.17
2019-04-04T14:00:10.410Z,1.60
2019-04-04T14:02:38.018Z,1.20
2019-04-04T14:05:10.655Z,1.27
2019-04-04T14:07:35.384Z,1.23
2019-04-04T14:10:03.563Z,0.93
2019-04-04T14:12:32.301Z,1.47
2019-04-04T14:15:00.716Z,1.57
2019-04-04T14:17:28.319Z,1.65
2019-04-04T14:19:56.508Z,2.17
2019-04-04T14:22:25.235Z,1.60
2019-04-04T14:24:52.818Z,1.40
2019-04-04T14:27:20.388Z,1.50
2019-04-04T14:29:48.231Z,2.12
2019-04-04T14:32:15.735Z,1.65
2019-04-04T14:34:43.555Z,1.57
2019-04-04T14:37:11.498Z,2.17
2019-04-04T14:39:39.370Z,1.95
2019-04-04T14:42:07.000Z,1.70
2019-04-04T14:44:36.114Z,1.90
2019-04-04T14:47:03.763Z,1.70
2019-04-04T14:49:31.488Z,1.52
2019-04-04T14:51:59.310Z,1.92
2019-04-04T14:54:29.055Z,1.75
2019-04-04T14:56:56.739Z,1.75
2019-04-04T14:59:24.317Z,1.40
2019-04-04T15:01:51.902Z,1.32
2019-04-04T15:04:19.531Z,1.25
2019-04-04T15:06:47.403Z,1.62
2019-04-04T15:09:15.014Z,1.40
2019-04-04T15:11:43.598Z,1.70
2019-04-04T15:14:11.495Z,2.40
2019-04-04T15:16:39.109Z,1.67
2019-04-04T15:19:07.697Z,1.77
2019-04-04T15:21:35.557Z,1.80
2019-04-04T15:24:03.159Z,1.52
2019-04-04T15:26:30.742Z,1.40
2019-04-04T15:28:58.583Z,1.40
2019-04-04T15:31:26.322Z,1.77
2019-04-04T15:33:54.215Z,2.07
2019-04-04T15:36:21.950Z,2.17
2019-04-04T15:38:49.573Z,1.40
2019-04-04T15:41:17.100Z,1.60
2019-04-04T15:43:44.585Z,1.35
2019-04-04T15:46:12.187Z,1.37
2019-04-04T15:48:39.764Z,1.20
2019-04-04T15:51:07.654Z,1.70
2019-04-04T15:53:35.443Z,1.45
2019-04-04T15:56:03.200Z,1.67
2019-04-04T15:58:31.958Z,1.75
2019-04-04T16:00:59.714Z,1.53
2019-04-04T16:03:27.334Z,1.80
2019-04-04T16:05:54.909Z,2.12
2019-04-04T16:08:22.749Z,2.67
2019-04-04T16:10:50.349Z,2.37
2019-04-04T16:13:17.946Z,2.20
2019-04-04T16:15:45.830Z,2.12
2019-04-04T16:18:13.692Z,3.40
2019-04-04T16:20:41.182Z,1.77
2019-04-04T16:23:08.989Z,1.77
2019-04-04T16:25:36.597Z,2.00
2019-04-04T16:28:05.178Z,2.00
2019-04-04T16:30:32.787Z,2.15
2019-04-04T16:33:00.380Z,2.07
2019-04-04T16:35:27.975Z,2.02
2019-04-04T16:37:55.915Z,2.70
2019-04-04T16:40:23.779Z,2.20
2019-04-04T16:42:51.758Z,2.10
2019-04-04T16:45:19.265Z,2.50
2019-04-04T16:47:46.870Z,3.40
2019-04-04T16:50:14.420Z,2.70
2019-04-04T16:52:42.056Z,2.53
2019-04-04T16:55:09.946Z,2.93
2019-04-04T16:57:37.802Z,2.90
2019-04-04T17:00:05.580Z,3.03
2019-04-04T17:02:33.241Z,3.40
2019-04-04T17:05:00.802Z,2.80
2019-04-04T17:07:28.450Z,3.25
2019-04-04T17:09:56.010Z,3.30
2019-04-04T17:12:23.623Z,2.10
2019-04-04T17:14:51.162Z,2.33
2019-04-04T17:17:18.724Z,1.80
2019-04-04T17:19:46.498Z,2.27
2019-04-04T17:22:14.051Z,2.17
2019-04-04T17:24:41.558Z,1.83
2019-04-04T17:27:09.094Z,2.08
2019-04-04T17:29:37.736Z,1.80
2019-04-04T17:32:05.344Z,1.90
2019-04-04T17:34:32.980Z,1.70
2019-04-04T17:37:00.563Z,2.43
2019-04-04T17:39:28.284Z,3.77
2019-04-04T17:41:55.816Z,6.27
2019-04-04T17:44:24.014Z,6.17
2019-04-04T17:46:51.691Z,4.12
2019-04-04T17:49:19.248Z,3.70
2019-04-04T17:51:46.926Z,5.00
2019-04-04T17:54:14.679Z,4.07
2019-04-04T17:56:42.305Z,2.90
2019-04-04T17:59:10.140Z,3.47
2019-04-04T18:04:26.606Z,2.90
2019-04-04T18:07:13.444Z,2.67
2019-04-04T18:09:47.732Z,3.07
2019-04-04T18:15:01.197Z,2.93
2019-04-04T18:17:28.844Z,2.87
2019-04-04T18:19:57.661Z,3.70
2019-04-04T18:22:25.337Z,6.07
2019-04-04T18:27:38.780Z,3.20
2019-04-04T18:35:52.473Z,5.60
2019-04-04T18:41:10.041Z,3.13
2019-04-04T18:43:37.884Z,3.23
2019-04-04T18:51:23.758Z,3.93
2019-04-04T18:53:51.787Z,3.37
2019-04-04T18:56:19.416Z,3.97
2019-04-04T18:58:47.147Z,3.57
2019-04-04T19:01:14.876Z,3.93
2019-04-04T19:03:42.922Z,3.57
2019-04-04T19:06:10.583Z,3.97
2019-04-04T19:14:30.998Z,5.43
2019-04-04T19:20:10.698Z,7.40
2019-04-04T19:22:38.539Z,6.17
2019-04-04T19:25:08.927Z,6.23
2019-04-04T19:27:37.389Z,6.40
2019-04-04T19:30:06.467Z,6.17
2019-04-04T19:32:35.155Z,5.07
2019-04-04T19:35:03.042Z,5.77
2019-04-04T19:37:30.718Z,6.10
2019-04-04T19:39:58.636Z,5.27
2019-04-04T19:42:26.288Z,5.27
2019-04-04T19:44:56.231Z,5.23
2019-04-04T19:47:26.060Z,5.77
2019-04-04T19:49:53.639Z,6.23
2019-04-04T19:52:21.299Z,5.93
2019-04-04T19:55:01.854Z,6.23
2019-04-04T19:57:29.596Z,7.47
2019-04-04T19:59:57.519Z,6.73
2019-04-04T20:05:52.487Z,4.50
2019-04-04T20:08:52.205Z,3.90
2019-04-04T20:11:18.939Z,5.33
2019-04-04T20:13:46.969Z,6.53
2019-04-04T20:16:24.568Z,7.53
2019-04-04T20:18:53.582Z,5.13
2019-04-04T20:21:21.148Z,5.23
2019-04-04T20:23:49.090Z,5.30
2019-04-04T20:26:35.435Z,5.33
2019-04-04T20:29:03.004Z,5.10
2019-04-04T20:31:30.602Z,4.90
2019-04-04T20:34:06.452Z,5.20
2019-04-04T20:36:34.055Z,5.53
2019-04-04T20:39:01.713Z,4.80
2019-04-04T20:41:31.384Z,5.23
2019-04-04T20:43:59.262Z,8.50
2019-04-04T20:46:27.164Z,11.93
2019-04-04T20:49:29.935Z,10.73
2019-04-04T20:55:07.377Z,9.27
2019-04-04T21:18:50.362Z,5.20
2019-04-04T21:21:18.153Z,6.67
2019-04-04T21:41:26.535Z,6.47
2019-04-04T22:08:30.330Z,5.67
2019-04-04T22:10:58.112Z,7.07
2019-04-04T22:13:26.110Z,6.87
2019-04-04T22:15:53.830Z,8.00
2019-04-04T22:18:21.509Z,7.50
2019-04-04T22:20:49.226Z,7.17
2019-04-04T22:23:17.249Z,7.00
2019-04-04T22:25:44.955Z,6.73
2019-04-04T22:28:12.681Z,7.77
2019-04-04T22:30:40.683Z,8.93
2019-04-04T22:33:08.431Z,8.30
2019-04-04T22:35:36.467Z,8.13
2019-04-04T22:38:04.807Z,8.67
2019-04-04T22:40:33.104Z,8.83
2019-04-04T22:43:01.112Z,9.67
2019-04-04T22:45:29.130Z,10.17
2019-04-04T22:47:56.852Z,9.93
2019-04-04T22:50:24.592Z,9.67
2019-04-04T22:52:53.499Z,10.23
2019-04-04T22:55:21.264Z,10.30
2019-04-04T22:57:48.968Z,10.90
2019-04-04T23:00:16.977Z,11.80
2019-04-04T23:02:44.988Z,12.90
2019-04-04T23:05:13.542Z,12.03
2019-04-04T23:07:41.547Z,12.00
2019-04-04T23:10:10.242Z,12.77
2019-04-04T23:12:38.219Z,12.80
2019-04-04T23:15:07.554Z,12.93
2019-04-04T23:17:35.520Z,12.40
2019-04-04T23:20:04.782Z,13.60
2019-04-04T23:22:32.858Z,13.83
2019-04-04T23:25:01.147Z,12.40
2019-04-04T23:27:29.115Z,11.90
2019-04-04T23:29:57.422Z,13.10
2019-04-04T23:32:25.835Z,14.80
2019-04-04T23:34:53.926Z,13.87
2019-04-04T23:37:21.946Z,14.33
2019-04-04T23:39:50.318Z,14.97
2019-04-04T23:42:18.406Z,15.53
2019-04-04T23:44:46.271Z,15.67
2019-04-04T23:50:23.090Z,15.97
2019-04-04T23:52:50.901Z,17.90
2019-04-04T23:55:18.992Z,18.23
2019-04-04T23:57:47.084Z,19.00
